sensor_id;sensor_type;location;lat;lon;timestamp;temperature;humidity
65044;DHT22;51617;48.158;16.464;2023-03-24T00:01:22;15.00;81.00
65044;DHT22;51617;48.158;16.464;2023-03-24T00:03:47;15.10;81.40
65044;DHT22;51617;48.158;16.464;2023-03-24T00:06:16;15.00;81.30
65044;DHT22;51617;48.158;16.464;2023-03-24T00:08:43;15.00;81.30
65044;DHT22;51617;48.158;16.464;2023-03-24T00:11:12;15.00;81.40
65044;DHT22;51617;48.158;16.464;2023-03-24T00:13:39;15.00;81.40
65044;DHT22;51617;48.158;16.464;2023-03-24T00:16:11;14.90;81.50
65044;DHT22;51617;48.158;16.464;2023-03-24T00:18:38;14.90;81.30
65044;DHT22;51617;48.158;16.464;2023-03-24T00:21:05;15.00;81.20
65044;DHT22;51617;48.158;16.464;2023-03-24T00:23:32;15.00;81.10
65044;DHT22;51617;48.158;16.464;2023-03-24T00:26:03;15.00;81.10
65044;DHT22;51617;48.158;16.464;2023-03-24T00:28:30;15.00;81.30
65044;DHT22;51617;48.158;16.464;2023-03-24T00:30:58;14.90;81.30
65044;DHT22;51617;48.158;16.464;2023-03-24T00:33:24;14.90;81.40
65044;DHT22;51617;48.158;16.464;2023-03-24T00:35:50;14.90;81.30
65044;DHT22;51617;48.158;16.464;2023-03-24T00:38:15;14.90;81.20
65044;DHT22;51617;48.158;16.464;2023-03-24T00:40:48;15.00;81.20
65044;DHT22;51617;48.158;16.464;2023-03-24T00:43:15;14.90;81.30
65044;DHT22;51617;48.158;16.464;2023-03-24T00:45:40;14.90;81.50
65044;DHT22;51617;48.158;16.464;2023-03-24T00:48:13;14.80;81.70
65044;DHT22;51617;48.158;16.464;2023-03-24T00:50:43;14.70;81.90
65044;DHT22;51617;48.158;16.464;2023-03-24T00:53:10;14.60;82.00
65044;DHT22;51617;48.158;16.464;2023-03-24T00:55:36;14.70;82.00
65044;DHT22;51617;48.158;16.464;2023-03-24T00:58:03;14.70;82.20
65044;DHT22;51617;48.158;16.464;2023-03-24T01:00:28;14.60;82.30
65044;DHT22;51617;48.158;16.464;2023-03-24T01:02:55;14.50;83.00
65044;DHT22;51617;48.158;16.464;2023-03-24T01:05:24;14.50;83.30
65044;DHT22;51617;48.158;16.464;2023-03-24T01:07:50;14.50;83.30
65044;DHT22;51617;48.158;16.464;2023-03-24T01:10:19;14.40;83.40
65044;DHT22;51617;48.158;16.464;2023-03-24T01:12:46;14.40;83.70
65044;DHT22;51617;48.158;16.464;2023-03-24T01:15:15;14.40;83.40
65044;DHT22;51617;48.158;16.464;2023-03-24T01:17:41;14.50;83.40
65044;DHT22;51617;48.158;16.464;2023-03-24T01:20:08;14.50;83.60
65044;DHT22;51617;48.158;16.464;2023-03-24T01:22:37;14.50;84.00
65044;DHT22;51617;48.158;16.464;2023-03-24T01:25:35;14.20;84.40
65044;DHT22;51617;48.158;16.464;2023-03-24T01:28:02;14.00;85.00
65044;DHT22;51617;48.158;16.464;2023-03-24T01:30:29;14.00;85.10
65044;DHT22;51617;48.158;16.464;2023-03-24T01:32:55;14.00;84.90
65044;DHT22;51617;48.158;16.464;2023-03-24T01:35:23;14.10;85.00
65044;DHT22;51617;48.158;16.464;2023-03-24T01:37:50;14.20;85.00
65044;DHT22;51617;48.158;16.464;2023-03-24T01:40:22;14.20;85.10
65044;DHT22;51617;48.158;16.464;2023-03-24T01:42:48;14.20;85.10
65044;DHT22;51617;48.158;16.464;2023-03-24T01:49:05;14.10;86.00
65044;DHT22;51617;48.158;16.464;2023-03-24T01:51:18;13.90;86.30
65044;DHT22;51617;48.158;16.464;2023-03-24T01:57:02;14.00;86.30
65044;DHT22;51617;48.158;16.464;2023-03-24T01:59:32;14.10;85.90
65044;DHT22;51617;48.158;16.464;2023-03-24T02:02:00;14.10;85.80
65044;DHT22;51617;48.158;16.464;2023-03-24T02:04:32;14.20;85.60
65044;DHT22;51617;48.158;16.464;2023-03-24T02:07:03;14.20;85.60
65044;DHT22;51617;48.158;16.464;2023-03-24T02:09:32;14.10;85.90
65044;DHT22;51617;48.158;16.464;2023-03-24T02:11:58;14.10;85.90
65044;DHT22;51617;48.158;16.464;2023-03-24T02:14:24;14.10;86.00
65044;DHT22;51617;48.158;16.464;2023-03-24T02:17:11;14.10;86.10
65044;DHT22;51617;48.158;16.464;2023-03-24T02:44:43;13.50;87.90
65044;DHT22;51617;48.158;16.464;2023-03-24T02:47:23;13.60;87.90
65044;DHT22;51617;48.158;16.464;2023-03-24T02:50:00;13.50;88.20
65044;DHT22;51617;48.158;16.464;2023-03-24T02:52:51;13.30;88.60
65044;DHT22;51617;48.158;16.464;2023-03-24T02:55:32;13.20;89.00
65044;DHT22;51617;48.158;16.464;2023-03-24T02:58:07;13.30;89.20
65044;DHT22;51617;48.158;16.464;2023-03-24T03:01:09;13.40;89.10
65044;DHT22;51617;48.158;16.464;2023-03-24T03:03:40;13.40;89.10
65044;DHT22;51617;48.158;16.464;2023-03-24T03:06:28;13.30;89.20
65044;DHT22;51617;48.158;16.464;2023-03-24T03:08:57;13.40;89.20
65044;DHT22;51617;48.158;16.464;2023-03-24T03:11:25;13.40;89.20
65044;DHT22;51617;48.158;16.464;2023-03-24T03:14:01;13.40;89.80
65044;DHT22;51617;48.158;16.464;2023-03-24T03:16:43;13.30;90.00
65044;DHT22;51617;48.158;16.464;2023-03-24T03:19:20;13.40;90.00
65044;DHT22;51617;48.158;16.464;2023-03-24T03:21:47;13.40;89.70
65044;DHT22;51617;48.158;16.464;2023-03-24T03:24:21;13.40;89.50
65044;DHT22;51617;48.158;16.464;2023-03-24T03:26:54;13.50;89.40
65044;DHT22;51617;48.158;16.464;2023-03-24T03:29:25;13.50;89.30
65044;DHT22;51617;48.158;16.464;2023-03-24T03:31:56;13.60;89.00
65044;DHT22;51617;48.158;16.464;2023-03-24T03:36:54;13.80;88.50
65044;DHT22;51617;48.158;16.464;2023-03-24T03:39:28;13.80;88.30
65044;DHT22;51617;48.158;16.464;2023-03-24T03:41:56;13.80;88.00
65044;DHT22;51617;48.158;16.464;2023-03-24T03:44:22;13.90;87.90
65044;DHT22;51617;48.158;16.464;2023-03-24T03:46:48;13.90;87.80
65044;DHT22;51617;48.158;16.464;2023-03-24T03:49:14;14.00;87.70
65044;DHT22;51617;48.158;16.464;2023-03-24T03:51:40;14.00;87.50
65044;DHT22;51617;48.158;16.464;2023-03-24T03:54:09;14.00;87.30
65044;DHT22;51617;48.158;16.464;2023-03-24T03:56:36;14.10;87.10
65044;DHT22;51617;48.158;16.464;2023-03-24T03:59:04;14.10;87.00
65044;DHT22;51617;48.158;16.464;2023-03-24T04:01:32;14.00;87.10
65044;DHT22;51617;48.158;16.464;2023-03-24T04:07:07;14.00;87.30
65044;DHT22;51617;48.158;16.464;2023-03-24T04:12:32;14.10;87.20
65044;DHT22;51617;48.158;16.464;2023-03-24T04:18:02;13.90;88.50
65044;DHT22;51617;48.158;16.464;2023-03-24T04:20:58;13.80;88.60
65044;DHT22;51617;48.158;16.464;2023-03-24T04:23:36;13.70;88.50
65044;DHT22;51617;48.158;16.464;2023-03-24T04:31:47;13.70;88.80
65044;DHT22;51617;48.158;16.464;2023-03-24T04:34:28;13.70;88.80
65044;DHT22;51617;48.158;16.464;2023-03-24T04:37:04;13.70;89.10
65044;DHT22;51617;48.158;16.464;2023-03-24T04:39:35;13.60;89.60
65044;DHT22;51617;48.158;16.464;2023-03-24T04:42:06;13.60;90.00
65044;DHT22;51617;48.158;16.464;2023-03-24T04:44:32;13.50;90.00
65044;DHT22;51617;48.158;16.464;2023-03-24T04:47:00;13.50;89.90
65044;DHT22;51617;48.158;16.464;2023-03-24T04:49:27;13.60;89.80
65044;DHT22;51617;48.158;16.464;2023-03-24T04:51:53;13.60;89.90
65044;DHT22;51617;48.158;16.464;2023-03-24T04:54:21;13.50;90.00
65044;DHT22;51617;48.158;16.464;2023-03-24T04:56:51;13.50;90.10
65044;DHT22;51617;48.158;16.464;2023-03-24T04:59:18;13.60;90.00
65044;DHT22;51617;48.158;16.464;2023-03-24T05:01:44;13.70;89.90
65044;DHT22;51617;48.158;16.464;2023-03-24T05:04:17;13.70;89.70
65044;DHT22;51617;48.158;16.464;2023-03-24T05:06:43;13.80;90.00
65044;DHT22;51617;48.158;16.464;2023-03-24T05:09:12;13.80;90.00
65044;DHT22;51617;48.158;16.464;2023-03-24T05:11:38;13.80;90.10
65044;DHT22;51617;48.158;16.464;2023-03-24T05:14:03;13.80;90.10
65044;DHT22;51617;48.158;16.464;2023-03-24T05:16:29;13.80;90.10
65044;DHT22;51617;48.158;16.464;2023-03-24T05:18:55;13.90;90.10
65044;DHT22;51617;48.158;16.464;2023-03-24T05:21:20;14.00;90.00
65044;DHT22;51617;48.158;16.464;2023-03-24T05:23:46;14.10;89.40
65044;DHT22;51617;48.158;16.464;2023-03-24T05:26:12;14.20;88.80
65044;DHT22;51617;48.158;16.464;2023-03-24T05:28:37;14.20;88.70
65044;DHT22;51617;48.158;16.464;2023-03-24T05:31:03;14.20;88.50
65044;DHT22;51617;48.158;16.464;2023-03-24T05:33:29;14.30;88.60
65044;DHT22;51617;48.158;16.464;2023-03-24T05:35:55;14.30;88.50
65044;DHT22;51617;48.158;16.464;2023-03-24T05:38:20;14.30;88.10
65044;DHT22;51617;48.158;16.464;2023-03-24T05:40:46;14.30;87.90
65044;DHT22;51617;48.158;16.464;2023-03-24T05:43:12;14.40;87.60
65044;DHT22;51617;48.158;16.464;2023-03-24T05:45:38;14.40;87.20
65044;DHT22;51617;48.158;16.464;2023-03-24T05:48:04;14.50;87.00
65044;DHT22;51617;48.158;16.464;2023-03-24T05:50:30;14.60;86.80
65044;DHT22;51617;48.158;16.464;2023-03-24T05:52:56;14.50;86.90
65044;DHT22;51617;48.158;16.464;2023-03-24T05:55:22;14.60;86.90
65044;DHT22;51617;48.158;16.464;2023-03-24T05:57:48;14.60;86.90
65044;DHT22;51617;48.158;16.464;2023-03-24T06:00:14;14.60;86.60
65044;DHT22;51617;48.158;16.464;2023-03-24T06:02:44;14.60;86.80
65044;DHT22;51617;48.158;16.464;2023-03-24T06:05:11;14.60;86.90
65044;DHT22;51617;48.158;16.464;2023-03-24T06:07:38;14.60;87.00
65044;DHT22;51617;48.158;16.464;2023-03-24T06:10:10;14.60;87.10
65044;DHT22;51617;48.158;16.464;2023-03-24T06:12:39;14.70;86.90
65044;DHT22;51617;48.158;16.464;2023-03-24T06:15:06;14.70;86.90
65044;DHT22;51617;48.158;16.464;2023-03-24T06:17:33;14.70;86.80
65044;DHT22;51617;48.158;16.464;2023-03-24T06:19:59;14.70;86.60
65044;DHT22;51617;48.158;16.464;2023-03-24T06:22:32;14.70;86.70
65044;DHT22;51617;48.158;16.464;2023-03-24T06:24:57;14.90;86.60
65044;DHT22;51617;48.158;16.464;2023-03-24T06:27:24;15.00;86.10
65044;DHT22;51617;48.158;16.464;2023-03-24T06:29:57;15.10;86.00
65044;DHT22;51617;48.158;16.464;2023-03-24T06:32:23;15.20;85.80
65044;DHT22;51617;48.158;16.464;2023-03-24T06:34:48;15.20;85.60
65044;DHT22;51617;48.158;16.464;2023-03-24T06:37:14;15.30;86.20
65044;DHT22;51617;48.158;16.464;2023-03-24T06:39:40;15.40;85.30
65044;DHT22;51617;48.158;16.464;2023-03-24T06:42:05;15.40;85.20
65044;DHT22;51617;48.158;16.464;2023-03-24T06:44:32;15.50;84.90
65044;DHT22;51617;48.158;16.464;2023-03-24T06:46:58;15.60;84.80
65044;DHT22;51617;48.158;16.464;2023-03-24T06:49:24;15.70;84.40
65044;DHT22;51617;48.158;16.464;2023-03-24T06:51:49;15.80;84.40
65044;DHT22;51617;48.158;16.464;2023-03-24T06:54:15;15.90;84.30
65044;DHT22;51617;48.158;16.464;2023-03-24T06:56:41;16.00;83.70
65044;DHT22;51617;48.158;16.464;2023-03-24T06:59:07;16.10;83.20
65044;DHT22;51617;48.158;16.464;2023-03-24T07:01:33;16.20;82.70
65044;DHT22;51617;48.158;16.464;2023-03-24T07:04:03;16.30;82.50
65044;DHT22;51617;48.158;16.464;2023-03-24T07:06:29;16.40;82.00
65044;DHT22;51617;48.158;16.464;2023-03-24T07:08:56;16.50;82.00
65044;DHT22;51617;48.158;16.464;2023-03-24T07:11:21;16.70;81.60
65044;DHT22;51617;48.158;16.464;2023-03-24T07:13:47;16.80;80.90
65044;DHT22;51617;48.158;16.464;2023-03-24T07:16:13;16.90;80.70
65044;DHT22;51617;48.158;16.464;2023-03-24T07:18:39;16.90;79.70
65044;DHT22;51617;48.158;16.464;2023-03-24T07:21:06;17.00;79.10
65044;DHT22;51617;48.158;16.464;2023-03-24T07:23:32;17.00;79.50
65044;DHT22;51617;48.158;16.464;2023-03-24T07:25:58;17.00;79.40
65044;DHT22;51617;48.158;16.464;2023-03-24T07:28:24;16.90;79.50
65044;DHT22;51617;48.158;16.464;2023-03-24T07:30:50;17.00;79.10
65044;DHT22;51617;48.158;16.464;2023-03-24T07:33:16;17.10;79.10
65044;DHT22;51617;48.158;16.464;2023-03-24T07:35:41;17.30;79.00
65044;DHT22;51617;48.158;16.464;2023-03-24T07:38:08;17.40;78.50
65044;DHT22;51617;48.158;16.464;2023-03-24T07:40:34;17.50;77.80
65044;DHT22;51617;48.158;16.464;2023-03-24T07:43:02;17.50;77.90
65044;DHT22;51617;48.158;16.464;2023-03-24T07:45:29;17.40;77.40
65044;DHT22;51617;48.158;16.464;2023-03-24T07:47:55;17.40;77.20
65044;DHT22;51617;48.158;16.464;2023-03-24T07:50:29;17.40;77.40
65044;DHT22;51617;48.158;16.464;2023-03-24T07:52:55;17.40;78.30
65044;DHT22;51617;48.158;16.464;2023-03-24T07:55:20;17.20;78.40
65044;DHT22;51617;48.158;16.464;2023-03-24T07:57:48;17.00;78.30
65044;DHT22;51617;48.158;16.464;2023-03-24T08:00:14;17.00;78.60
65044;DHT22;51617;48.158;16.464;2023-03-24T08:02:44;17.10;79.10
65044;DHT22;51617;48.158;16.464;2023-03-24T08:05:11;17.10;79.10
65044;DHT22;51617;48.158;16.464;2023-03-24T08:07:42;17.20;78.80
65044;DHT22;51617;48.158;16.464;2023-03-24T08:10:12;17.30;78.00
65044;DHT22;51617;48.158;16.464;2023-03-24T08:12:40;17.20;78.00
65044;DHT22;51617;48.158;16.464;2023-03-24T08:15:06;17.30;77.40
65044;DHT22;51617;48.158;16.464;2023-03-24T08:17:33;17.40;77.30
65044;DHT22;51617;48.158;16.464;2023-03-24T08:19:59;17.50;77.10
65044;DHT22;51617;48.158;16.464;2023-03-24T08:22:24;17.50;76.70
65044;DHT22;51617;48.158;16.464;2023-03-24T08:24:51;17.60;76.50
65044;DHT22;51617;48.158;16.464;2023-03-24T08:27:17;17.60;76.40
65044;DHT22;51617;48.158;16.464;2023-03-24T08:29:42;17.70;76.20
65044;DHT22;51617;48.158;16.464;2023-03-24T08:32:08;17.60;76.20
65044;DHT22;51617;48.158;16.464;2023-03-24T08:34:34;17.60;76.80
65044;DHT22;51617;48.158;16.464;2023-03-24T08:37:00;17.80;76.80
65044;DHT22;51617;48.158;16.464;2023-03-24T08:39:25;17.80;76.60
65044;DHT22;51617;48.158;16.464;2023-03-24T08:41:51;17.90;76.10
65044;DHT22;51617;48.158;16.464;2023-03-24T08:44:19;18.00;75.60
65044;DHT22;51617;48.158;16.464;2023-03-24T08:46:45;18.10;75.20
65044;DHT22;51617;48.158;16.464;2023-03-24T08:49:11;18.20;75.10
65044;DHT22;51617;48.158;16.464;2023-03-24T08:51:37;18.30;74.20
65044;DHT22;51617;48.158;16.464;2023-03-24T08:54:02;18.30;74.50
65044;DHT22;51617;48.158;16.464;2023-03-24T08:56:28;18.40;74.70
65044;DHT22;51617;48.158;16.464;2023-03-24T08:58:54;18.50;74.50
65044;DHT22;51617;48.158;16.464;2023-03-24T09:01:21;18.60;74.00
65044;DHT22;51617;48.158;16.464;2023-03-24T09:03:47;18.60;73.70
65044;DHT22;51617;48.158;16.464;2023-03-24T09:06:13;18.70;74.10
65044;DHT22;51617;48.158;16.464;2023-03-24T09:08:40;18.90;73.40
65044;DHT22;51617;48.158;16.464;2023-03-24T09:11:06;19.10;72.50
65044;DHT22;51617;48.158;16.464;2023-03-24T09:13:37;19.30;71.30
65044;DHT22;51617;48.158;16.464;2023-03-24T09:16:03;19.30;71.40
65044;DHT22;51617;48.158;16.464;2023-03-24T09:18:29;19.50;71.70
65044;DHT22;51617;48.158;16.464;2023-03-24T09:20:56;19.60;71.60
65044;DHT22;51617;48.158;16.464;2023-03-24T09:23:22;19.80;71.50
65044;DHT22;51617;48.158;16.464;2023-03-24T09:25:49;19.80;69.70
65044;DHT22;51617;48.158;16.464;2023-03-24T09:28:15;19.80;69.60
65044;DHT22;51617;48.158;16.464;2023-03-24T09:30:41;20.00;69.10
65044;DHT22;51617;48.158;16.464;2023-03-24T09:33:07;20.10;68.90
65044;DHT22;51617;48.158;16.464;2023-03-24T09:35:33;20.20;68.80
65044;DHT22;51617;48.158;16.464;2023-03-24T09:37:59;20.20;68.10
65044;DHT22;51617;48.158;16.464;2023-03-24T09:40:28;20.20;67.70
65044;DHT22;51617;48.158;16.464;2023-03-24T09:45:33;20.40;67.20
65044;DHT22;51617;48.158;16.464;2023-03-24T09:48:11;20.50;67.10
65044;DHT22;51617;48.158;16.464;2023-03-24T09:50:59;20.60;66.70
65044;DHT22;51617;48.158;16.464;2023-03-24T09:53:41;20.80;66.40
65044;DHT22;51617;48.158;16.464;2023-03-24T09:56:17;20.80;65.70
65044;DHT22;51617;48.158;16.464;2023-03-24T09:58:47;20.80;65.50
65044;DHT22;51617;48.158;16.464;2023-03-24T10:01:15;20.80;65.10
65044;DHT22;51617;48.158;16.464;2023-03-24T10:03:42;20.70;65.40
65044;DHT22;51617;48.158;16.464;2023-03-24T10:06:14;20.60;65.90
65044;DHT22;51617;48.158;16.464;2023-03-24T10:08:45;20.70;65.30
65044;DHT22;51617;48.158;16.464;2023-03-24T10:14:20;21.00;65.00
65044;DHT22;51617;48.158;16.464;2023-03-24T10:22:10;21.00;65.00
65044;DHT22;51617;48.158;16.464;2023-03-24T10:29:44;21.40;64.00
65044;DHT22;51617;48.158;16.464;2023-03-24T10:32:18;21.50;63.80
65044;DHT22;51617;48.158;16.464;2023-03-24T10:34:51;21.50;63.30
65044;DHT22;51617;48.158;16.464;2023-03-24T10:37:19;21.50;63.70
65044;DHT22;51617;48.158;16.464;2023-03-24T10:39:44;21.40;64.20
65044;DHT22;51617;48.158;16.464;2023-03-24T10:42:19;21.30;64.00
65044;DHT22;51617;48.158;16.464;2023-03-24T10:44:50;21.40;63.90
65044;DHT22;51617;48.158;16.464;2023-03-24T10:47:17;21.40;63.90
65044;DHT22;51617;48.158;16.464;2023-03-24T10:49:54;21.60;63.90
65044;DHT22;51617;48.158;16.464;2023-03-24T10:52:19;21.70;63.40
65044;DHT22;51617;48.158;16.464;2023-03-24T10:54:56;21.70;63.40
65044;DHT22;51617;48.158;16.464;2023-03-24T10:57:24;21.70;63.10
65044;DHT22;51617;48.158;16.464;2023-03-24T10:59:55;21.70;62.90
65044;DHT22;51617;48.158;16.464;2023-03-24T11:02:24;21.70;62.90
65044;DHT22;51617;48.158;16.464;2023-03-24T11:04:57;21.50;62.50
65044;DHT22;51617;48.158;16.464;2023-03-24T11:07:34;21.30;63.00
65044;DHT22;51617;48.158;16.464;2023-03-24T11:10:05;21.40;63.20
65044;DHT22;51617;48.158;16.464;2023-03-24T11:13:01;21.60;63.20
65044;DHT22;51617;48.158;16.464;2023-03-24T11:15:31;21.70;62.70
65044;DHT22;51617;48.158;16.464;2023-03-24T11:20:30;21.70;62.60
65044;DHT22;51617;48.158;16.464;2023-03-24T11:25:31;21.90;62.70
65044;DHT22;51617;48.158;16.464;2023-03-24T11:28:14;22.10;62.00
65044;DHT22;51617;48.158;16.464;2023-03-24T11:30:50;22.20;62.00
65044;DHT22;51617;48.158;16.464;2023-03-24T11:33:26;22.30;61.90
65044;DHT22;51617;48.158;16.464;2023-03-24T11:35:53;22.40;62.20
65044;DHT22;51617;48.158;16.464;2023-03-24T11:38:33;22.60;62.20
65044;DHT22;51617;48.158;16.464;2023-03-24T11:41:01;22.40;61.10
65044;DHT22;51617;48.158;16.464;2023-03-24T11:43:30;22.20;61.70
65044;DHT22;51617;48.158;16.464;2023-03-24T11:48:49;22.30;62.40
65044;DHT22;51617;48.158;16.464;2023-03-24T11:51:29;22.50;62.10
65044;DHT22;51617;48.158;16.464;2023-03-24T11:53:57;22.60;61.80
65044;DHT22;51617;48.158;16.464;2023-03-24T12:04:44;22.70;61.90
65044;DHT22;51617;48.158;16.464;2023-03-24T12:13:02;22.80;62.00
65044;DHT22;51617;48.158;16.464;2023-03-24T12:21:29;22.90;62.00
65044;DHT22;51617;48.158;16.464;2023-03-24T12:42:15;23.60;59.70
65044;DHT22;51617;48.158;16.464;2023-03-24T12:45:03;23.60;59.40
65044;DHT22;51617;48.158;16.464;2023-03-24T12:59:02;23.60;59.80
65044;DHT22;51617;48.158;16.464;2023-03-24T13:01:38;23.80;59.70
65044;DHT22;51617;48.158;16.464;2023-03-24T13:09:50;23.40;60.30
65044;DHT22;51617;48.158;16.464;2023-03-24T13:12:26;23.30;60.90
65044;DHT22;51617;48.158;16.464;2023-03-24T13:17:49;23.20;60.90
65044;DHT22;51617;48.158;16.464;2023-03-24T13:20:21;23.10;60.30
65044;DHT22;51617;48.158;16.464;2023-03-24T13:22:49;23.10;59.50
65044;DHT22;51617;48.158;16.464;2023-03-24T13:25:50;23.00;60.70
65044;DHT22;51617;48.158;16.464;2023-03-24T13:28:24;23.00;63.20
65044;DHT22;51617;48.158;16.464;2023-03-24T13:30:52;23.00;60.50
65044;DHT22;51617;48.158;16.464;2023-03-24T13:33:23;23.00;60.90
65044;DHT22;51617;48.158;16.464;2023-03-24T13:38:36;23.10;61.60
65044;DHT22;51617;48.158;16.464;2023-03-24T13:41:11;23.00;60.90
65044;DHT22;51617;48.158;16.464;2023-03-24T13:43:49;23.00;60.20
65044;DHT22;51617;48.158;16.464;2023-03-24T13:46:16;22.80;60.50
65044;DHT22;51617;48.158;16.464;2023-03-24T13:48:50;23.00;61.50
65044;DHT22;51617;48.158;16.464;2023-03-24T13:51:33;23.30;60.40
65044;DHT22;51617;48.158;16.464;2023-03-24T13:56:40;23.50;59.30
65044;DHT22;51617;48.158;16.464;2023-03-24T13:59:24;23.60;60.00
65044;DHT22;51617;48.158;16.464;2023-03-24T14:02:21;23.80;59.50
65044;DHT22;51617;48.158;16.464;2023-03-24T14:15:29;23.40;59.50
65044;DHT22;51617;48.158;16.464;2023-03-24T14:20:59;23.50;59.10
65044;DHT22;51617;48.158;16.464;2023-03-24T14:25:56;23.30;59.50
65044;DHT22;51617;48.158;16.464;2023-03-24T14:28:36;23.20;59.30
65044;DHT22;51617;48.158;16.464;2023-03-24T14:31:17;23.30;59.20
65044;DHT22;51617;48.158;16.464;2023-03-24T14:36:42;23.10;59.80
65044;DHT22;51617;48.158;16.464;2023-03-24T14:39:28;23.10;59.60
65044;DHT22;51617;48.158;16.464;2023-03-24T14:41:56;23.00;60.00
65044;DHT22;51617;48.158;16.464;2023-03-24T14:47:15;22.80;60.50
65044;DHT22;51617;48.158;16.464;2023-03-24T14:49:43;22.70;60.80
65044;DHT22;51617;48.158;16.464;2023-03-24T14:54:47;22.50;61.20
65044;DHT22;51617;48.158;16.464;2023-03-24T15:07:43;22.10;62.30
65044;DHT22;51617;48.158;16.464;2023-03-24T15:10:19;22.10;63.20
65044;DHT22;51617;48.158;16.464;2023-03-24T15:12:46;21.80;63.50
65044;DHT22;51617;48.158;16.464;2023-03-24T15:15:23;21.30;64.70
65044;DHT22;51617;48.158;16.464;2023-03-24T15:17:50;21.00;65.80
65044;DHT22;51617;48.158;16.464;2023-03-24T15:20:29;20.80;66.40
65044;DHT22;51617;48.158;16.464;2023-03-24T15:23:07;20.60;66.90
65044;DHT22;51617;48.158;16.464;2023-03-24T15:25:33;20.60;67.80
65044;DHT22;51617;48.158;16.464;2023-03-24T15:27:58;20.50;68.50
65044;DHT22;51617;48.158;16.464;2023-03-24T15:30:25;20.40;68.70
65044;DHT22;51617;48.158;16.464;2023-03-24T15:32:51;20.30;69.20
65044;DHT22;51617;48.158;16.464;2023-03-24T15:35:22;20.40;69.50
65044;DHT22;51617;48.158;16.464;2023-03-24T15:37:53;20.30;69.80
65044;DHT22;51617;48.158;16.464;2023-03-24T15:42:55;20.20;71.80
65044;DHT22;51617;48.158;16.464;2023-03-24T15:45:28;20.10;71.90
65044;DHT22;51617;48.158;16.464;2023-03-24T15:47:55;20.10;72.50
65044;DHT22;51617;48.158;16.464;2023-03-24T15:55:45;19.40;75.70
65044;DHT22;51617;48.158;16.464;2023-03-24T15:58:26;19.20;77.10
65044;DHT22;51617;48.158;16.464;2023-03-24T16:00:58;19.00;77.90
65044;DHT22;51617;48.158;16.464;2023-03-24T16:03:25;18.80;79.30
65044;DHT22;51617;48.158;16.464;2023-03-24T16:05:53;18.70;80.10
65044;DHT22;51617;48.158;16.464;2023-03-24T16:11:10;18.50;82.70
65044;DHT22;51617;48.158;16.464;2023-03-24T16:13:38;18.50;83.70
65044;DHT22;51617;48.158;16.464;2023-03-24T16:18:43;18.10;84.40
65044;DHT22;51617;48.158;16.464;2023-03-24T16:21:24;18.00;85.90
65044;DHT22;51617;48.158;16.464;2023-03-24T16:23:52;17.90;86.90
65044;DHT22;51617;48.158;16.464;2023-03-24T16:26:23;17.70;87.90
65044;DHT22;51617;48.158;16.464;2023-03-24T16:28:50;17.70;88.90
65044;DHT22;51617;48.158;16.464;2023-03-24T16:31:28;17.60;89.80
65044;DHT22;51617;48.158;16.464;2023-03-24T16:33:59;17.60;90.20
65044;DHT22;51617;48.158;16.464;2023-03-24T16:36:26;17.50;90.50
65044;DHT22;51617;48.158;16.464;2023-03-24T16:38:56;17.50;90.50
65044;DHT22;51617;48.158;16.464;2023-03-24T16:41:22;17.50;90.60
65044;DHT22;51617;48.158;16.464;2023-03-24T16:43:48;17.50;90.50
65044;DHT22;51617;48.158;16.464;2023-03-24T16:46:14;17.60;90.50
65044;DHT22;51617;48.158;16.464;2023-03-24T16:48:41;17.60;90.70
65044;DHT22;51617;48.158;16.464;2023-03-24T16:51:12;17.60;90.50
65044;DHT22;51617;48.158;16.464;2023-03-24T16:53:38;17.60;90.50
65044;DHT22;51617;48.158;16.464;2023-03-24T16:56:04;17.60;90.70
65044;DHT22;51617;48.158;16.464;2023-03-24T16:58:30;17.60;91.10
65044;DHT22;51617;48.158;16.464;2023-03-24T17:00:56;17.50;91.20
65044;DHT22;51617;48.158;16.464;2023-03-24T17:03:26;17.50;91.50
65044;DHT22;51617;48.158;16.464;2023-03-24T17:05:56;17.50;91.70
65044;DHT22;51617;48.158;16.464;2023-03-24T17:08:22;17.50;92.20
65044;DHT22;51617;48.158;16.464;2023-03-24T17:10:51;17.50;92.30
65044;DHT22;51617;48.158;16.464;2023-03-24T17:13:20;17.50;92.60
65044;DHT22;51617;48.158;16.464;2023-03-24T17:15:46;17.60;93.10
65044;DHT22;51617;48.158;16.464;2023-03-24T17:18:12;17.50;93.60
65044;DHT22;51617;48.158;16.464;2023-03-24T17:20:37;17.40;93.70
65044;DHT22;51617;48.158;16.464;2023-03-24T17:23:08;17.40;93.70
65044;DHT22;51617;48.158;16.464;2023-03-24T17:25:34;17.40;93.70
65044;DHT22;51617;48.158;16.464;2023-03-24T17:28:00;17.40;93.60
65044;DHT22;51617;48.158;16.464;2023-03-24T17:30:27;17.40;93.60
65044;DHT22;51617;48.158;16.464;2023-03-24T17:32:53;17.30;93.70
65044;DHT22;51617;48.158;16.464;2023-03-24T17:35:21;17.30;93.90
65044;DHT22;51617;48.158;16.464;2023-03-24T17:37:49;17.20;94.20
65044;DHT22;51617;48.158;16.464;2023-03-24T17:40:19;17.20;94.10
65044;DHT22;51617;48.158;16.464;2023-03-24T17:42:46;17.20;94.30
65044;DHT22;51617;48.158;16.464;2023-03-24T17:45:15;17.10;94.30
65044;DHT22;51617;48.158;16.464;2023-03-24T17:47:43;17.20;94.40
65044;DHT22;51617;48.158;16.464;2023-03-24T17:50:10;17.10;94.50
65044;DHT22;51617;48.158;16.464;2023-03-24T17:52:38;17.10;94.50
65044;DHT22;51617;48.158;16.464;2023-03-24T17:55:04;17.10;94.60
65044;DHT22;51617;48.158;16.464;2023-03-24T17:57:40;17.10;94.60
65044;DHT22;51617;48.158;16.464;2023-03-24T18:00:08;17.10;95.00
65044;DHT22;51617;48.158;16.464;2023-03-24T18:02:37;17.00;95.20
65044;DHT22;51617;48.158;16.464;2023-03-24T18:05:04;16.90;95.20
65044;DHT22;51617;48.158;16.464;2023-03-24T18:07:31;16.80;95.10
65044;DHT22;51617;48.158;16.464;2023-03-24T18:09:57;16.80;94.90
65044;DHT22;51617;48.158;16.464;2023-03-24T18:12:23;16.90;95.00
65044;DHT22;51617;48.158;16.464;2023-03-24T18:14:51;16.90;95.00
65044;DHT22;51617;48.158;16.464;2023-03-24T18:17:16;16.90;95.10
65044;DHT22;51617;48.158;16.464;2023-03-24T18:19:42;16.80;95.20
65044;DHT22;51617;48.158;16.464;2023-03-24T18:22:09;16.70;95.30
65044;DHT22;51617;48.158;16.464;2023-03-24T18:24:35;16.60;95.80
65044;DHT22;51617;48.158;16.464;2023-03-24T18:27:02;16.70;96.00
65044;DHT22;51617;48.158;16.464;2023-03-24T18:29:30;16.70;96.10
65044;DHT22;51617;48.158;16.464;2023-03-24T18:31:56;16.80;96.20
65044;DHT22;51617;48.158;16.464;2023-03-24T18:34:22;16.80;96.30